Time;durP1;ratioP1;P1;durP2;ratioP2;P2;SDS_P1;SDS_P2;PMS_P1;PMS_P2;Temp;Humidity;BMP_temperature;BMP_pressure;BME280_temperature;BME280_humidity;BME280_pressure;Samples;Min_cycle;Max_cycle;Signal;HPM_P1;HPM_P2
2022/05/02 00:02:54;;;;;;;36.50;20.30;;;;;;;4.75;67.07;100154.39;215818;1274;140297;-69
2022/05/02 00:07:57;;;;;;;36.00;22.60;;;;;;;4.61;67.22;100153.14;215460;1274;140852;-66
2022/05/02 00:13:01;;;;;;;30.70;19.40;;;;;;;4.46;67.31;100149.67;216006;1274;141537;-68
2022/05/02 00:18:05;;;;;;;36.80;22.30;;;;;;;4.38;67.55;100146.70;215243;1275;140518;-65
2022/05/02 00:23:09;;;;;;;35.00;20.50;;;;;;;4.39;68.02;100142.89;214592;1274;140743;-65
2022/05/02 00:28:14;;;;;;;42.40;24.60;;;;;;;4.34;68.09;100142.05;215233;1274;142440;-67
2022/05/02 00:33:18;;;;;;;32.30;21.30;;;;;;;4.36;68.26;100143.09;213797;1275;143468;-67
2022/05/02 00:38:22;;;;;;;46.00;27.10;;;;;;;4.30;68.31;100144.57;213060;1274;142383;-65
2022/05/02 00:43:25;;;;;;;43.70;25.20;;;;;;;4.33;68.71;100144.27;214370;1274;144598;-65
2022/05/02 00:48:29;;;;;;;41.20;26.50;;;;;;;4.36;68.79;100142.49;213952;1274;141493;-64
2022/05/02 00:53:32;;;;;;;40.80;25.50;;;;;;;4.29;68.72;100140.61;213421;1275;141572;-65
2022/05/02 00:58:36;;;;;;;44.80;26.60;;;;;;;4.22;68.65;100144.61;213298;1274;141512;-65
2022/05/02 01:03:40;;;;;;;39.90;25.00;;;;;;;4.21;68.97;100146.73;213155;1274;141933;-65
2022/05/02 01:08:44;;;;;;;39.10;25.70;;;;;;;4.19;69.22;100154.30;213699;1274;141825;-64
2022/05/02 01:13:49;;;;;;;37.20;20.70;;;;;;;4.16;69.23;100163.11;213330;1274;143287;-64
2022/05/02 01:18:54;;;;;;;34.70;21.80;;;;;;;4.00;69.26;100157.23;214959;1274;142402;-68
2022/05/02 01:24:02;;;;;;;37.30;23.10;;;;;;;3.87;69.43;100147.90;214582;1274;140280;-65
2022/05/02 01:29:06;;;;;;;31.70;23.80;;;;;;;3.83;69.62;100149.25;213522;1274;140561;-65
2022/05/02 01:34:10;;;;;;;32.30;19.40;;;;;;;3.78;69.61;100151.61;213925;1274;142286;-66
2022/05/02 01:39:15;;;;;;;36.60;22.00;;;;;;;3.68;69.66;100154.73;214355;1274;140453;-67
2022/05/02 01:44:19;;;;;;;29.10;20.50;;;;;;;3.61;69.57;100149.75;214628;1274;141079;-66
2022/05/02 01:49:22;;;;;;;34.80;21.50;;;;;;;3.44;69.69;100149.66;215150;1274;142312;-67
2022/05/02 01:54:25;;;;;;;38.10;25.20;;;;;;;3.37;69.99;100146.08;215690;1274;140855;-68
2022/05/02 01:59:28;;;;;;;36.40;24.90;;;;;;;3.38;70.22;100143.81;216014;1274;140848;-68
2022/05/02 02:09:54;;;;;;;37.10;21.60;;;;;;;3.35;70.28;100132.30;215366;1274;141219;-68
2022/05/02 02:14:56;;;;;;;30.60;20.60;;;;;;;3.37;70.50;100134.63;214062;1274;162085;-65
2022/05/02 02:20:01;;;;;;;33.70;23.00;;;;;;;3.35;70.24;100134.92;215614;1274;141495;-66
2022/05/02 02:25:05;;;;;;;22.90;16.30;;;;;;;3.25;69.97;100130.66;213907;1274;141605;-64
2022/05/02 02:30:09;;;;;;;35.20;18.50;;;;;;;3.11;70.25;100127.88;214473;1274;141516;-63
2022/05/02 02:35:12;;;;;;;32.70;18.20;;;;;;;2.96;70.29;100122.96;214322;1274;140997;-65
2022/05/02 02:40:15;;;;;;;32.90;22.00;;;;;;;2.89;70.98;100118.30;214430;1274;143002;-65
2022/05/02 02:45:18;;;;;;;38.30;24.50;;;;;;;2.85;71.35;100118.55;213389;1273;211073;-65
2022/05/02 02:50:21;;;;;;;30.40;19.60;;;;;;;2.93;71.45;100120.48;213446;1274;140797;-62
2022/05/02 02:55:25;;;;;;;35.90;20.40;;;;;;;2.90;71.33;100126.39;214177;1274;142514;-63
2022/05/02 03:00:29;;;;;;;38.60;23.60;;;;;;;2.78;71.33;100128.31;213733;1274;142028;-63
2022/05/02 03:10:56;;;;;;;37.50;23.60;;;;;;;2.85;72.02;100121.26;213681;1276;140784;-63
2022/05/02 03:15:58;;;;;;;35.70;24.50;;;;;;;2.89;72.05;100126.73;214284;1276;222634;-64
2022/05/02 03:21:01;;;;;;;31.30;22.60;;;;;;;2.92;72.01;100125.13;214685;1276;141647;-64
2022/05/02 03:26:03;;;;;;;33.00;21.90;;;;;;;2.92;71.72;100125.62;214177;1275;142465;-63
2022/05/02 03:31:06;;;;;;;29.70;21.50;;;;;;;2.83;71.30;100124.59;213403;1274;141403;-62
2022/05/02 03:36:09;;;;;;;24.80;16.50;;;;;;;2.84;71.53;100128.66;214451;1274;142446;-64
2022/05/02 03:41:12;;;;;;;32.90;18.50;;;;;;;3.01;71.39;100123.88;213839;1274;141044;-65
2022/05/02 03:46:14;;;;;;;25.00;20.70;;;;;;;3.34;71.43;100125.88;213631;1274;140905;-65
2022/05/02 03:51:17;;;;;;;29.60;21.10;;;;;;;3.78;71.59;100123.50;215191;1274;142139;-65
2022/05/02 03:56:19;;;;;;;38.50;22.10;;;;;;;4.45;71.20;100124.89;216237;1274;140814;-68
2022/05/02 04:01:23;;;;;;;22.60;16.20;;;;;;;5.04;69.87;100121.89;215929;1274;140993;-67
2022/05/02 04:06:26;;;;;;;25.90;18.70;;;;;;;5.32;69.41;100125.59;214732;1274;142447;-64
2022/05/02 04:11:29;;;;;;;27.90;19.50;;;;;;;5.78;69.60;100124.99;214534;1275;141929;-66
2022/05/02 04:16:32;;;;;;;25.60;18.90;;;;;;;5.95;68.96;100127.43;214003;1276;141298;-65
2022/05/02 04:21:35;;;;;;;30.00;20.00;;;;;;;6.31;68.25;100133.27;214505;1276;140419;-66
2022/05/02 04:26:39;;;;;;;24.10;17.50;;;;;;;6.69;68.25;100135.86;214801;1274;141609;-66
2022/05/02 04:31:41;;;;;;;22.90;15.30;;;;;;;6.89;67.08;100136.19;214108;1276;140707;-65
2022/05/02 04:36:48;;;;;;;29.90;17.50;;;;;;;6.67;66.66;100138.14;214422;1274;141544;-66
2022/05/02 04:41:51;;;;;;;26.20;17.00;;;;;;;6.64;67.01;100137.85;213810;1274;140710;-65
2022/05/02 04:46:52;;;;;;;22.80;18.50;;;;;;;6.55;67.51;100134.96;213964;1274;140735;-64
2022/05/02 04:51:56;;;;;;;31.10;22.20;;;;;;;6.60;68.17;100135.10;213591;1274;141073;-66
2022/05/02 04:56:58;;;;;;;22.70;16.50;;;;;;;6.79;68.50;100129.15;213690;1274;140706;-66
2022/05/02 05:02:07;;;;;;;33.30;22.40;;;;;;;6.89;68.30;100129.34;214695;1274;143077;-65
2022/05/02 05:07:11;;;;;;;38.50;23.70;;;;;;;7.08;68.82;100130.63;213004;1274;141404;-63
2022/05/02 05:12:33;;;;;;;24.40;17.90;;;;;;;8.18;67.89;100125.74;214218;1274;141687;-63
2022/05/02 05:17:47;;;;;;;26.50;19.30;;;;;;;10.45;65.63;100129.98;214171;1274;140998;-65
2022/05/02 05:23:04;;;;;;;26.40;18.80;;;;;;;11.96;64.33;100132.35;214169;1273;142304;-63
2022/05/02 05:28:28;;;;;;;23.30;19.80;;;;;;;14.34;61.50;100129.75;213156;1274;140922;-64
2022/05/02 05:34:03;;;;;;;23.20;18.00;;;;;;;17.53;58.30;100121.40;214439;1274;141819;-65
2022/05/02 05:39:10;;;;;;;29.40;19.80;;;;;;;17.73;56.46;100119.48;214690;1274;140543;-67
2022/05/02 05:44:19;;;;;;;28.70;20.80;;;;;;;19.03;53.78;100120.17;214142;1274;141417;-63
2022/05/02 05:50:03;;;;;;;25.70;20.80;;;;;;;19.66;51.93;100124.27;215072;1274;140791;-65
2022/05/02 05:55:12;;;;;;;23.80;19.40;;;;;;;18.66;51.69;100123.32;215663;1274;139912;-68
2022/05/02 06:00:16;;;;;;;25.50;20.80;;;;;;;17.91;51.26;100121.23;215974;1274;141103;-66
2022/05/02 06:05:19;;;;;;;22.10;19.30;;;;;;;17.54;51.24;100121.76;215497;1274;140901;-67
2022/05/02 06:10:25;;;;;;;20.50;16.80;;;;;;;16.92;51.18;100121.77;215754;1274;141376;-63
2022/05/02 06:21:08;;;;;;;25.10;17.60;;;;;;;15.96;51.23;100121.46;214583;1274;140912;-67
2022/05/02 06:26:13;;;;;;;21.80;15.10;;;;;;;15.75;51.32;100124.55;215521;1273;142244;-69
2022/05/02 06:31:21;;;;;;;20.40;17.50;;;;;;;15.58;51.12;100125.77;213323;1274;140673;-69
2022/05/02 06:36:34;;;;;;;18.00;16.20;;;;;;;15.55;51.39;100125.77;214704;1274;142732;-68
2022/05/02 06:42:06;;;;;;;27.50;16.30;;;;;;;15.66;51.21;100123.20;214008;1274;140110;-69
2022/05/02 06:47:37;;;;;;;18.90;15.60;;;;;;;15.59;50.93;100124.88;213425;1274;140074;-70
2022/05/02 06:52:53;;;;;;;15.90;13.00;;;;;;;15.93;51.35;100121.05;212731;1274;140483;-70
2022/05/02 06:58:06;;;;;;;15.80;13.20;;;;;;;17.36;50.62;100119.31;213205;1274;143118;-72
2022/05/02 07:03:22;;;;;;;14.30;12.80;;;;;;;18.92;49.26;100116.61;213141;1274;140750;-69
2022/05/02 07:08:29;;;;;;;12.60;9.80;;;;;;;20.13;47.81;100110.97;213820;1273;140480;-69
2022/05/02 07:13:47;;;;;;;13.80;8.10;;;;;;;20.82;46.23;100110.13;214293;1274;140398;-70
2022/05/02 07:18:53;;;;;;;11.30;7.70;;;;;;;20.99;44.55;100109.83;214590;1274;141831;-68
2022/05/02 07:24:31;;;;;;;7.90;7.30;;;;;;;21.15;43.17;100107.16;214411;1274;139701;-69
2022/05/02 07:29:37;;;;;;;8.70;7.30;;;;;;;21.33;43.35;100102.67;214712;1274;141568;-67
2022/05/02 07:34:41;;;;;;;7.80;6.50;;;;;;;21.65;42.59;100104.27;214753;1274;141746;-70
2022/05/02 07:39:45;;;;;;;9.00;6.60;;;;;;;22.13;42.04;100101.77;214127;1274;139820;-73
2022/05/02 07:44:51;;;;;;;9.70;6.50;;;;;;;22.48;40.51;100105.20;214935;1274;204555;-70
2022/05/02 07:49:57;;;;;;;6.10;5.50;;;;;;;22.45;39.14;100106.61;215532;1274;418960;-66
2022/05/02 07:55:03;;;;;;;10.60;7.90;;;;;;;21.90;38.84;100105.54;213590;1274;139940;-69
2022/05/02 08:00:08;;;;;;;9.20;7.80;;;;;;;21.29;37.84;100104.32;215916;1274;140178;-70
2022/05/02 08:05:12;;;;;;;7.00;6.30;;;;;;;20.96;39.01;100108.15;215670;1274;141497;-69
2022/05/02 08:10:44;;;;;;;9.40;6.60;;;;;;;21.13;38.67;100104.18;215042;1274;139847;-68
2022/05/02 08:16:03;;;;;;;9.10;7.00;;;;;;;21.24;38.69;100101.08;213015;1274;139876;-66
2022/05/02 08:21:20;;;;;;;9.20;5.80;;;;;;;21.47;38.37;100102.36;215692;1274;140105;-66
2022/05/02 08:27:15;;;;;;;7.20;5.30;;;;;;;21.58;37.63;100103.23;214838;1274;139986;-65
2022/05/02 08:32:34;;;;;;;5.10;4.60;;;;;;;21.44;37.16;100102.56;213977;1274;140183;-69
2022/05/02 08:38:05;;;;;;;5.70;4.60;;;;;;;21.40;37.60;100101.95;213932;1274;140368;-68
2022/05/02 08:43:39;;;;;;;6.90;5.30;;;;;;;21.25;37.39;100101.63;213151;1274;140138;-67
2022/05/02 08:54:36;;;;;;;8.60;6.20;;;;;;;21.01;37.56;100097.95;214054;1274;140970;-65
2022/05/02 09:00:05;;;;;;;11.40;6.70;;;;;;;20.85;37.44;100097.20;213413;1274;140792;-67
2022/05/02 09:05:41;;;;;;;5.20;4.70;;;;;;;21.06;37.35;100092.05;213044;1275;140206;-64
2022/05/02 09:11:02;;;;;;;13.90;4.30;;;;;;;21.25;37.37;100085.05;215145;1274;142196;-68
2022/05/02 09:16:23;;;;;;;4.90;4.10;;;;;;;21.48;37.14;100080.58;213048;1274;141527;-67
2022/05/02 09:21:58;;;;;;;4.00;3.60;;;;;;;21.71;37.12;100074.58;214481;1274;141061;-67
2022/05/02 09:27:05;;;;;;;4.40;4.00;;;;;;;21.90;36.21;100067.48;212839;1276;141625;-67
2022/05/02 09:32:33;;;;;;;4.80;4.30;;;;;;;21.83;35.47;100066.15;215070;1274;142043;-67
2022/05/02 09:37:58;;;;;;;5.70;4.40;;;;;;;21.72;35.74;100064.53;214352;1274;142783;-68
2022/05/02 09:49:36;;;;;;;4.40;3.90;;;;;;;22.31;35.90;100050.04;214487;1274;139383;-70
2022/05/02 10:01:11;;;;;;;3.90;3.50;;;;;;;22.53;35.07;100037.29;215981;1274;140461;-69
2022/05/02 10:06:26;;;;;;;6.10;4.40;;;;;;;22.68;35.17;100037.35;215849;1274;140086;-71
2022/05/02 10:12:12;;;;;;;5.20;3.70;;;;;;;22.76;34.69;100036.20;215835;1274;141154;-66
2022/05/02 10:18:00;;;;;;;3.90;3.60;;;;;;;22.92;34.13;100035.23;215906;1274;139695;-70
2022/05/02 10:23:28;;;;;;;5.10;4.00;;;;;;;23.03;34.02;100026.25;213307;1274;140294;-66
2022/05/02 10:28:53;;;;;;;5.40;3.70;;;;;;;23.19;34.20;100014.71;214989;1274;140545;-70
2022/05/02 10:34:00;;;;;;;3.90;3.50;;;;;;;23.09;32.73;100003.39;214680;1274;140159;-67
2022/05/02 10:39:15;;;;;;;4.10;3.80;;;;;;;22.94;33.31;100005.97;214402;1274;140302;-66
2022/05/02 10:44:18;;;;;;;4.70;4.10;;;;;;;23.03;33.02;99997.63;213553;1274;140586;-69
2022/05/02 10:49:49;;;;;;;5.10;4.30;;;;;;;23.00;32.98;99996.00;212867;1274;140456;-65
2022/05/02 10:55:12;;;;;;;5.10;4.60;;;;;;;23.22;32.96;99991.79;213475;1274;139426;-68
2022/05/02 11:00:16;;;;;;;4.70;4.10;;;;;;;23.41;33.11;99989.05;212901;1275;139808;-70
2022/05/02 11:05:51;;;;;;;8.70;7.10;;;;;;;23.54;33.05;99980.70;213838;1274;141918;-68
2022/05/02 11:11:35;;;;;;;10.90;8.30;;;;;;;23.59;33.00;99979.48;213714;1274;140017;-67
2022/05/02 11:17:04;;;;;;;8.00;6.50;;;;;;;22.98;33.31;99973.30;213443;1274;140619;-67
2022/05/02 11:22:31;;;;;;;7.80;5.90;;;;;;;22.30;33.42;99973.22;213973;1274;141005;-65
2022/05/02 11:27:43;;;;;;;7.20;6.50;;;;;;;21.89;33.55;99972.91;215453;1274;139307;-68
2022/05/02 11:33:04;;;;;;;8.90;7.00;;;;;;;21.31;34.01;99970.50;213765;1274;139654;-68
2022/05/02 11:38:27;;;;;;;10.00;7.00;;;;;;;20.95;34.86;99965.29;213967;1274;140180;-68
2022/05/02 11:43:31;;;;;;;9.70;6.80;;;;;;;20.84;35.78;99968.58;213248;1274;139887;-70
2022/05/02 11:49:05;;;;;;;7.70;6.20;;;;;;;20.72;36.07;99970.57;215643;1274;140129;-67
2022/05/02 11:54:27;;;;;;;8.00;7.10;;;;;;;20.58;36.22;99966.94;215916;1274;140288;-70
2022/05/02 12:00:05;;;;;;;14.20;6.40;;;;;;;20.38;36.80;99965.78;215855;1274;139827;-71
2022/05/02 12:05:12;;;;;;;6.60;5.70;;;;;;;20.29;36.87;99957.27;215636;1274;140292;-71
2022/05/02 12:10:31;;;;;;;7.20;5.50;;;;;;;20.38;37.07;99948.61;216075;1274;139693;-70
2022/05/02 12:15:53;;;;;;;6.40;5.50;;;;;;;20.78;37.06;99943.42;215779;1274;140509;-75
2022/05/02 12:21:05;;;;;;;11.20;7.30;;;;;;;20.79;36.69;99938.91;213283;1275;142465;-68
2022/05/02 12:26:18;;;;;;;6.00;5.50;;;;;;;20.44;36.90;99933.13;215013;1274;140929;-66
2022/05/02 12:31:29;;;;;;;6.00;5.50;;;;;;;20.20;37.16;99926.51;214609;1272;140803;-71
2022/05/02 12:36:59;;;;;;;7.30;5.20;;;;;;;20.22;37.18;99920.34;213039;1274;141314;-67
2022/05/02 12:42:17;;;;;;;5.80;5.20;;;;;;;20.32;36.83;99915.98;213493;1274;141461;-73
2022/05/02 12:47:23;;;;;;;5.90;5.30;;;;;;;20.61;36.67;99911.64;214193;1274;140509;-71
2022/05/02 12:52:28;;;;;;;9.90;5.70;;;;;;;20.97;36.11;99899.45;213798;1276;140719;-70
2022/05/02 13:03:17;;;;;;;6.90;5.20;;;;;;;21.40;35.59;99884.66;214703;1274;140873;-72
2022/05/02 13:08:34;;;;;;;5.70;4.90;;;;;;;21.24;34.69;99878.31;213639;1274;154796;-76
2022/05/02 13:13:40;;;;;;;5.50;5.00;;;;;;;21.37;34.95;99877.41;214229;1274;142743;-72
2022/05/02 13:18:49;;;;;;;6.90;4.80;;;;;;;21.29;35.08;99874.42;213894;1274;140265;-71
2022/05/02 13:23:59;;;;;;;6.70;4.30;;;;;;;21.19;34.66;99872.81;214262;1274;139482;-72
2022/05/02 13:29:18;;;;;;;5.10;4.50;;;;;;;21.05;34.72;99869.33;214735;1274;140456;-71
2022/05/02 13:34:32;;;;;;;4.50;4.10;;;;;;;21.00;34.67;99862.00;214039;1274;141210;-73
2022/05/02 13:39:54;;;;;;;3.60;3.20;;;;;;;21.07;34.72;99857.80;213984;1274;142200;-71
2022/05/02 13:44:58;;;;;;;4.50;3.70;;;;;;;21.27;34.12;99854.89;215348;1272;140243;-72
2022/05/02 13:50:14;;;;;;;5.30;4.10;;;;;;;21.61;34.04;99853.84;215792;1274;139872;-74
2022/05/02 13:55:43;;;;;;;6.70;4.50;;;;;;;21.87;33.70;99844.40;216057;1274;140320;-75
2022/05/02 14:01:39;;;;;;;4.50;3.70;;;;;;;21.72;32.85;99835.41;215863;1274;140057;-75
2022/05/02 14:11:58;;;;;;;4.40;3.40;;;;;;;21.44;33.23;99829.41;215849;1274;140429;-75
2022/05/02 14:17:02;;;;;;;4.00;3.70;;;;;;;21.32;33.48;99830.23;213468;1274;141450;-69
2022/05/02 14:22:05;;;;;;;4.90;4.20;;;;;;;21.28;34.02;99829.59;215057;1274;140593;-74
2022/05/02 14:27:09;;;;;;;6.20;3.60;;;;;;;21.26;34.14;99824.64;213519;1274;140240;-73
2022/05/02 14:32:13;;;;;;;4.10;3.80;;;;;;;21.17;33.98;99820.41;214303;1274;140219;-74
2022/05/02 14:37:23;;;;;;;4.60;4.00;;;;;;;21.07;34.00;99812.20;213977;1274;140542;-72
2022/05/02 14:42:27;;;;;;;6.70;3.90;;;;;;;20.93;34.18;99810.87;214315;1274;139452;-70
2022/05/02 14:47:32;;;;;;;3.60;3.30;;;;;;;20.53;34.37;99813.20;214636;1274;140573;-75
2022/05/02 14:52:38;;;;;;;7.50;5.20;;;;;;;20.27;34.44;99803.98;213869;1274;139705;-75
2022/05/02 14:57:46;;;;;;;4.20;3.30;;;;;;;20.17;34.59;99799.23;213606;1274;139877;-76
2022/05/02 15:02:51;;;;;;;6.40;4.00;;;;;;;20.30;34.29;99795.27;214938;1274;140183;-76
2022/05/02 15:08:12;;;;;;;3.40;3.20;;;;;;;20.39;34.24;99793.77;213554;1274;139584;-70
2022/05/02 15:13:35;;;;;;;4.70;3.10;;;;;;;20.50;34.31;99787.13;213715;1274;141192;-75
2022/05/02 15:24:46;;;;;;;3.60;3.30;;;;;;;20.46;33.98;99783.77;214653;1274;141380;-75
2022/05/02 15:41:07;;;;;;;4.30;3.70;;;;;;;20.10;33.59;99772.89;214778;1275;140159;-72
2022/05/02 15:46:13;;;;;;;4.10;3.70;;;;;;;20.06;33.84;99769.27;215620;1274;141111;-73
2022/05/02 15:51:15;;;;;;;4.40;4.00;;;;;;;20.01;34.18;99766.10;216044;1274;140852;-70
2022/05/02 15:56:22;;;;;;;5.00;4.50;;;;;;;19.98;34.48;99766.85;215779;1274;140779;-71
2022/05/02 16:01:36;;;;;;;6.20;4.90;;;;;;;19.87;34.60;99765.73;216006;1274;152508;-73
2022/05/02 16:06:50;;;;;;;7.50;3.90;;;;;;;19.68;35.14;99763.98;214447;1274;139630;-70
2022/05/02 16:11:53;;;;;;;4.10;3.50;;;;;;;19.51;35.68;99756.50;214623;1274;139795;-70
2022/05/02 16:16:58;;;;;;;7.00;3.90;;;;;;;19.42;36.21;99757.53;214352;1274;139956;-71
2022/05/02 16:22:02;;;;;;;14.60;4.60;;;;;;;19.33;36.62;99755.98;214624;1274;151671;-71
2022/05/02 16:27:05;;;;;;;8.20;5.20;;;;;;;19.24;36.92;99753.19;214319;1274;141166;-69
2022/05/02 16:32:08;;;;;;;5.20;4.20;;;;;;;19.12;37.27;99745.08;215319;1274;140822;-70
2022/05/02 16:37:10;;;;;;;4.70;4.20;;;;;;;19.03;37.35;99747.56;214972;1274;140548;-70
2022/05/02 16:42:17;;;;;;;5.00;4.30;;;;;;;18.93;37.65;99744.83;214031;1276;230984;-71
2022/05/02 16:47:24;;;;;;;5.60;5.10;;;;;;;18.83;37.81;99744.74;214549;1274;141431;-70
2022/05/02 16:52:37;;;;;;;6.90;5.40;;;;;;;18.73;37.94;99742.76;214495;1274;140074;-71
2022/05/02 16:57:41;;;;;;;7.80;5.10;;;;;;;18.60;38.33;99741.44;213832;1274;140813;-71
2022/05/02 17:02:47;;;;;;;4.30;3.90;;;;;;;18.47;38.49;99740.75;213964;1274;139711;-66
2022/05/02 17:07:51;;;;;;;6.30;5.20;;;;;;;18.26;38.70;99741.13;215103;1274;139900;-77
2022/05/02 17:12:54;;;;;;;8.20;6.30;;;;;;;18.08;38.92;99741.40;213959;1274;140081;-71
2022/05/02 17:17:58;;;;;;;6.90;5.80;;;;;;;17.91;39.28;99746.41;214734;1274;139775;-70
2022/05/02 17:23:03;;;;;;;5.80;5.40;;;;;;;17.76;39.78;99749.55;214660;1274;139928;-78
2022/05/02 17:28:12;;;;;;;8.80;6.20;;;;;;;17.61;40.29;99749.00;214325;1274;140890;-72
2022/05/02 17:33:15;;;;;;;5.00;4.30;;;;;;;17.44;40.61;99748.73;213882;1274;141022;-73
2022/05/02 17:38:21;;;;;;;10.70;4.90;;;;;;;17.24;40.77;99746.64;216052;1274;139963;-75
2022/05/02 17:43:23;;;;;;;5.90;4.90;;;;;;;17.05;40.90;99751.70;213279;1274;140280;-77
2022/05/02 17:48:29;;;;;;;6.90;5.30;;;;;;;16.83;40.97;99752.16;214908;1274;139893;-69
2022/05/02 17:53:33;;;;;;;8.40;5.10;;;;;;;16.59;41.37;99754.77;215228;1273;140342;-71
2022/05/02 17:58:39;;;;;;;8.60;7.70;;;;;;;16.31;41.72;99749.96;216126;1273;140432;-71
2022/05/02 18:03:44;;;;;;;9.20;7.00;;;;;;;16.03;42.19;99750.11;214808;1274;139661;-72
2022/05/02 18:08:48;;;;;;;8.90;5.50;;;;;;;15.70;42.71;99758.33;215430;1274;140006;-72
2022/05/02 18:13:52;;;;;;;9.30;5.60;;;;;;;15.40;43.65;99759.39;215097;1274;140625;-69
2022/05/02 18:19:04;;;;;;;9.30;5.80;;;;;;;15.11;44.27;99760.02;213044;1273;140081;-74
2022/05/02 18:24:14;;;;;;;8.60;6.50;;;;;;;14.81;44.89;99765.21;214492;1274;140215;-73
2022/05/02 18:29:20;;;;;;;7.40;5.50;;;;;;;14.48;46.05;99770.88;214243;1274;141261;-69
2022/05/02 18:35:49;;;;;;;7.40;5.90;;;;;;;14.18;47.04;99775.16;214515;1274;140551;-76
2022/05/02 18:39:52;;;;;;;6.90;6.30;;;;;;;13.89;47.80;99779.06;213524;1274;140643;-69
2022/05/02 18:52:57;;;;;;;;;;;;;;;13.64;48.44;99785.70;214580;1274;139865;-72
2022/05/02 18:55:53;;;;;;;8.40;7.30;;;;;;;13.10;49.69;99792.80;212996;1274;141152;-64
2022/05/02 19:00:57;;;;;;;8.70;6.70;;;;;;;12.88;50.58;99794.55;213404;1274;141836;-70
2022/05/02 19:06:05;;;;;;;8.90;7.10;;;;;;;12.66;51.10;99793.02;214366;1274;140221;-71
2022/05/02 19:11:09;;;;;;;6.70;6.10;;;;;;;12.44;51.38;99790.69;214323;1274;139981;-73
2022/05/02 19:16:20;;;;;;;9.10;5.80;;;;;;;12.17;51.73;99791.14;213474;1274;141637;-72
2022/05/02 19:21:52;;;;;;;8.50;6.70;;;;;;;11.87;52.64;99792.94;214154;1274;142993;-71
2022/05/02 19:27:01;;;;;;;6.20;5.70;;;;;;;11.62;53.42;99798.78;213210;1274;142446;-67
2022/05/02 19:32:07;;;;;;;11.20;7.30;;;;;;;11.36;53.89;99795.21;214018;1274;140644;-74
2022/05/02 19:42:45;;;;;;;12.40;7.40;;;;;;;10.75;55.15;99797.83;215857;1274;140876;-66
2022/05/02 19:47:51;;;;;;;13.80;8.70;;;;;;;10.58;55.76;99794.58;215104;1276;506529;-72
2022/05/02 19:53:00;;;;;;;12.00;10.50;;;;;;;10.42;56.07;99801.20;215863;1276;141672;-74
2022/05/02 19:58:07;;;;;;;15.10;11.20;;;;;;;10.22;56.40;99795.18;215466;1276;140509;-71
2022/05/02 20:03:13;;;;;;;27.10;13.00;;;;;;;10.06;56.84;99795.91;215989;1276;141471;-69
2022/05/02 20:08:22;;;;;;;19.20;11.80;;;;;;;9.93;57.23;99794.45;214707;1274;141454;-71
2022/05/02 20:13:25;;;;;;;18.40;11.10;;;;;;;9.75;57.26;99797.10;214824;1274;140623;-70
2022/05/02 20:18:29;;;;;;;18.80;11.80;;;;;;;9.56;57.99;99799.91;214781;1274;139928;-70
2022/05/02 20:23:32;;;;;;;17.80;11.10;;;;;;;9.48;58.29;99798.10;213765;1274;140400;-69
2022/05/02 20:28:41;;;;;;;19.10;14.70;;;;;;;9.43;58.75;99798.05;214576;1274;140858;-69
2022/05/02 20:39:30;;;;;;;23.20;16.00;;;;;;;9.22;59.10;99792.08;213095;1281;141911;-70
2022/05/02 20:44:53;;;;;;;21.10;13.50;;;;;;;9.00;59.88;99786.48;212792;1281;139520;-72
2022/05/02 20:49:58;;;;;;;20.40;15.00;;;;;;;8.81;60.50;99784.96;213663;1276;141815;-74
2022/05/02 20:55:01;;;;;;;26.00;16.00;;;;;;;8.69;61.05;99788.45;213044;1274;139989;-70
2022/05/02 21:00:08;;;;;;;21.00;12.90;;;;;;;8.63;61.26;99786.79;213583;1274;139639;-71
2022/05/02 21:05:13;;;;;;;20.60;12.70;;;;;;;8.43;61.45;99784.75;213173;1275;139995;-72
2022/05/02 21:10:16;;;;;;;21.20;10.20;;;;;;;8.22;61.90;99777.84;213284;1274;150499;-71
2022/05/02 21:15:39;;;;;;;19.80;12.40;;;;;;;8.09;62.39;99777.55;214231;1274;139575;-67
2022/05/02 21:20:53;;;;;;;14.50;10.00;;;;;;;7.98;62.77;99775.97;214420;1273;140341;-69
2022/05/02 21:26:11;;;;;;;17.00;10.90;;;;;;;7.91;63.15;99773.99;214450;1274;139541;-72
2022/05/02 21:31:26;;;;;;;20.00;13.90;;;;;;;7.77;62.89;99768.98;214027;1274;230605;-71
2022/05/02 21:36:28;;;;;;;17.50;12.00;;;;;;;7.60;62.94;99769.44;215015;1274;141282;-70
2022/05/02 21:41:31;;;;;;;17.10;12.70;;;;;;;7.51;63.52;99771.04;215288;1274;140550;-71
2022/05/02 21:46:33;;;;;;;17.80;13.00;;;;;;;7.44;64.14;99773.20;215096;1274;141442;-70
2022/05/02 21:51:36;;;;;;;15.30;12.20;;;;;;;7.43;64.12;99768.60;216001;1274;164872;-74
2022/05/02 21:56:40;;;;;;;24.70;14.80;;;;;;;7.35;64.46;99772.65;213590;1274;142127;-71
2022/05/02 22:01:43;;;;;;;31.70;19.00;;;;;;;7.27;64.58;99772.45;216181;1274;141684;-73
2022/05/02 22:06:45;;;;;;;31.20;18.50;;;;;;;7.25;64.85;99772.84;215806;1274;141438;-72
2022/05/02 22:11:48;;;;;;;31.10;19.90;;;;;;;7.27;64.92;99770.26;214493;1274;143003;-69
2022/05/02 22:16:54;;;;;;;35.50;23.70;;;;;;;7.19;64.98;99775.88;214764;1274;141087;-72
2022/05/02 22:21:58;;;;;;;43.90;22.50;;;;;;;7.19;65.49;99789.83;214684;1274;141776;-71
2022/05/02 22:27:02;;;;;;;26.70;19.00;;;;;;;7.15;65.32;99790.53;213563;1274;143505;-67
2022/05/02 22:32:05;;;;;;;22.30;17.50;;;;;;;7.02;65.52;99788.80;213217;1274;141879;-71
2022/05/02 22:37:08;;;;;;;39.50;20.70;;;;;;;6.93;65.97;99791.70;213449;1275;142032;-66
2022/05/02 22:42:11;;;;;;;36.20;21.20;;;;;;;6.87;66.17;99786.23;214382;1274;142020;-66
2022/05/02 22:47:14;;;;;;;33.00;19.40;;;;;;;6.74;65.86;99788.93;213992;1274;142183;-66
2022/05/02 22:52:16;;;;;;;37.10;20.20;;;;;;;6.55;66.10;99786.09;213379;1274;142032;-66
2022/05/02 22:57:28;;;;;;;42.60;25.90;;;;;;;6.45;66.30;99786.43;212924;1274;142130;-66
2022/05/02 23:02:41;;;;;;;49.00;25.40;;;;;;;6.35;66.59;99784.59;213624;1274;141278;-65
2022/05/02 23:07:47;;;;;;;48.10;26.40;;;;;;;6.27;66.97;99778.11;213333;1274;154866;-66
2022/05/02 23:12:51;;;;;;;36.60;21.20;;;;;;;6.22;66.91;99775.51;213428;1274;142026;-66
2022/05/02 23:17:55;;;;;;;33.40;22.20;;;;;;;6.00;66.81;99772.31;214786;1274;139937;-68
2022/05/02 23:23:02;;;;;;;;;;;;;;;5.85;67.37;99780.65;213589;1275;139680;-66
2022/05/02 23:28:07;;;;;;;58.90;30.30;;;;;;;5.85;68.36;99776.75;214051;1274;126362;-66
2022/05/02 23:33:23;;;;;;;64.90;31.30;;;;;;;5.84;68.07;99770.11;214629;1274;140212;-68
2022/05/02 23:38:44;;;;;;;56.60;31.70;;;;;;;5.75;68.09;99766.14;215865;1274;140326;-69
2022/05/02 23:44:04;;;;;;;72.00;32.80;;;;;;;5.65;68.51;99763.84;214765;1274;141619;-67
2022/05/02 23:49:25;;;;;;;85.30;40.70;;;;;;;5.66;68.75;99765.27;214891;1274;141952;-68
2022/05/02 23:54:51;;;;;;;71.90;35.60;;;;;;;5.63;68.60;99757.30;215960;1274;141801;-68
